createdAt,value
2023-04-26T00:01:10.420Z,2.10
2023-04-26T00:03:38.215Z,2.20
2023-04-26T00:06:05.822Z,2.28
2023-04-26T00:08:32.869Z,2.58
2023-04-26T00:10:59.475Z,2.05
2023-04-26T00:13:26.270Z,2.10
2023-04-26T00:15:53.271Z,2.05
2023-04-26T00:18:19.970Z,2.35
2023-04-26T00:20:46.550Z,2.28
2023-04-26T00:23:13.349Z,2.13
2023-04-26T00:25:40.531Z,2.17
2023-04-26T00:28:07.098Z,2.45
2023-04-26T00:30:39.350Z,2.65
2023-04-26T00:33:05.901Z,2.20
2023-04-26T00:35:32.657Z,2.20
2023-04-26T00:38:01.508Z,2.30
2023-04-26T00:40:31.156Z,2.55
2023-04-26T00:43:02.712Z,2.53
2023-04-26T00:45:29.436Z,2.60
2023-04-26T00:47:56.949Z,2.67
2023-04-26T00:50:23.834Z,3.00
2023-04-26T00:52:51.078Z,2.50
2023-04-26T00:55:19.319Z,2.30
2023-04-26T00:57:46.512Z,2.10
2023-04-26T01:00:13.708Z,2.22
2023-04-26T01:02:41.863Z,2.25
2023-04-26T01:05:09.506Z,2.50
2023-04-26T01:07:37.641Z,1.92
2023-04-26T01:10:05.798Z,1.90
2023-04-26T01:12:33.337Z,2.17
2023-04-26T01:15:01.524Z,1.92
2023-04-26T01:17:40.613Z,2.10
2023-04-26T01:20:10.772Z,2.10
2023-04-26T01:22:37.707Z,2.10
2023-04-26T01:25:07.724Z,2.08
2023-04-26T01:27:36.935Z,2.10
2023-04-26T01:32:47.121Z,2.38
2023-04-26T01:35:14.364Z,2.17
2023-04-26T01:37:41.454Z,2.00
2023-04-26T01:40:08.969Z,2.40
2023-04-26T01:42:35.819Z,2.10
2023-04-26T01:45:02.609Z,2.15
2023-04-26T01:47:29.198Z,2.67
2023-04-26T01:49:56.114Z,2.03
2023-04-26T01:52:23.330Z,2.80
2023-04-26T01:54:49.826Z,2.20
2023-04-26T01:57:19.608Z,2.50
2023-04-26T01:59:46.110Z,2.50
2023-04-26T02:02:12.668Z,2.58
2023-04-26T02:04:39.349Z,2.38
2023-04-26T02:07:06.807Z,2.60
2023-04-26T02:09:33.461Z,2.65
2023-04-26T02:12:00.176Z,2.60
2023-04-26T02:14:27.085Z,2.75
2023-04-26T02:16:53.940Z,2.63
2023-04-26T02:19:21.046Z,2.88
2023-04-26T02:21:56.032Z,2.97
2023-04-26T02:24:23.518Z,2.58
2023-04-26T02:26:50.711Z,2.60
2023-04-26T02:29:17.624Z,2.90
2023-04-26T02:31:44.317Z,2.78
2023-04-26T02:34:10.861Z,2.58
2023-04-26T02:36:37.318Z,2.53
2023-04-26T02:39:04.003Z,3.00
2023-04-26T02:41:33.017Z,3.13
2023-04-26T02:44:10.276Z,2.97
2023-04-26T02:46:36.868Z,2.90
2023-04-26T02:49:03.362Z,3.17
2023-04-26T02:51:29.800Z,3.00
2023-04-26T02:53:56.375Z,3.17
2023-04-26T02:56:23.304Z,2.60
2023-04-26T02:58:50.656Z,3.33
2023-04-26T03:01:18.980Z,2.63
2023-04-26T03:03:47.349Z,2.80
2023-04-26T03:09:45.332Z,2.47
2023-04-26T03:15:14.000Z,3.00
2023-04-26T03:17:48.925Z,3.05
2023-04-26T03:20:15.412Z,2.83
2023-04-26T03:22:47.854Z,2.83
2023-04-26T03:25:16.194Z,2.65
2023-04-26T03:27:42.895Z,3.80
2023-04-26T03:30:09.819Z,3.30
2023-04-26T03:32:36.616Z,3.17
2023-04-26T03:35:03.204Z,3.22
2023-04-26T03:37:33.599Z,3.65
2023-04-26T03:40:00.194Z,3.58
2023-04-26T03:42:27.547Z,3.70
2023-04-26T03:44:54.777Z,3.88
2023-04-26T03:47:21.487Z,3.70
2023-04-26T03:49:48.144Z,3.67
2023-04-26T03:52:14.833Z,3.90
2023-04-26T03:54:41.655Z,4.00
2023-04-26T03:57:08.388Z,3.50
2023-04-26T03:59:35.457Z,4.03
2023-04-26T04:02:03.629Z,4.10
2023-04-26T04:04:30.330Z,4.50
2023-04-26T04:06:57.000Z,4.20
2023-04-26T04:09:24.118Z,4.18
2023-04-26T04:11:52.895Z,4.07
2023-04-26T04:14:24.665Z,3.97
2023-04-26T04:16:55.068Z,4.55
2023-04-26T04:19:24.667Z,5.03
2023-04-26T04:21:52.479Z,3.90
2023-04-26T04:24:22.823Z,4.53
2023-04-26T04:26:50.177Z,4.38
2023-04-26T04:29:16.790Z,4.97
2023-04-26T04:31:44.057Z,4.43
2023-04-26T04:34:10.724Z,4.30
2023-04-26T04:36:39.010Z,4.43
2023-04-26T04:39:09.856Z,3.72
2023-04-26T04:41:37.101Z,4.00
2023-04-26T04:44:04.912Z,4.30
2023-04-26T04:46:32.240Z,4.50
2023-04-26T04:49:04.853Z,4.35
2023-04-26T04:51:33.183Z,4.28
2023-04-26T04:54:02.485Z,4.38
2023-04-26T04:59:39.067Z,4.20
2023-04-26T05:02:05.595Z,4.50
2023-04-26T05:04:35.186Z,3.83
2023-04-26T05:07:12.894Z,4.45
2023-04-26T05:09:42.212Z,3.92
2023-04-26T05:14:40.853Z,4.00
2023-04-26T05:17:11.568Z,4.80
2023-04-26T05:19:47.343Z,4.32
2023-04-26T05:22:18.292Z,4.28
2023-04-26T05:24:47.189Z,4.15
2023-04-26T05:27:14.605Z,3.78
2023-04-26T05:29:41.856Z,3.88
2023-04-26T05:32:08.602Z,3.80
2023-04-26T05:34:35.453Z,3.92
2023-04-26T05:37:03.854Z,4.18
2023-04-26T05:45:01.308Z,3.95
2023-04-26T05:47:30.977Z,3.53
2023-04-26T05:49:57.469Z,3.70
2023-04-26T05:52:24.267Z,3.75
2023-04-26T05:54:54.074Z,4.28
2023-04-26T05:57:22.176Z,3.97
2023-04-26T05:59:48.796Z,4.07
2023-04-26T06:02:15.739Z,3.65
2023-04-26T06:49:16.220Z,1.83
2023-04-26T06:51:46.294Z,2.05
2023-04-26T06:54:17.984Z,1.65
2023-04-26T06:56:53.244Z,1.80
2023-04-26T06:59:27.099Z,1.70
2023-04-26T07:01:56.683Z,1.98
2023-04-26T07:04:23.509Z,1.90
2023-04-26T07:06:50.609Z,1.60
2023-04-26T07:09:17.486Z,1.45
2023-04-26T07:11:47.144Z,1.70
2023-04-26T07:14:13.637Z,1.60
2023-04-26T07:16:48.847Z,1.95
2023-04-26T07:43:47.370Z,1.50
2023-04-26T07:47:03.682Z,1.20
2023-04-26T07:49:30.203Z,1.10
2023-04-26T07:51:58.200Z,1.10
2023-04-26T07:54:24.674Z,0.98
2023-04-26T07:56:51.141Z,1.02
2023-04-26T07:59:25.392Z,1.10
2023-04-26T08:01:52.059Z,0.80
2023-04-26T08:04:33.783Z,1.02
2023-04-26T08:07:04.151Z,1.17
2023-04-26T08:09:30.885Z,1.23
2023-04-26T08:11:58.603Z,0.90
2023-04-26T08:14:25.188Z,0.90
2023-04-26T08:16:51.862Z,0.90
2023-04-26T08:19:18.450Z,1.20
2023-04-26T08:21:44.996Z,1.00
2023-04-26T08:24:29.384Z,0.80
2023-04-26T08:27:49.467Z,0.70
2023-04-26T08:38:42.490Z,0.77
2023-04-26T08:41:14.733Z,0.90
2023-04-26T08:43:41.533Z,0.70
2023-04-26T08:46:16.368Z,1.02
2023-04-26T08:52:29.011Z,0.90
2023-04-26T08:55:03.659Z,0.90
2023-04-26T08:57:33.644Z,0.85
2023-04-26T09:00:06.083Z,1.00
2023-04-26T09:02:36.951Z,1.00
2023-04-26T09:05:05.464Z,0.88
2023-04-26T09:08:18.436Z,0.90
2023-04-26T09:10:45.295Z,1.20
2023-04-26T09:13:13.316Z,0.90
2023-04-26T09:15:45.412Z,1.00
2023-04-26T09:18:23.150Z,1.10
2023-04-26T09:21:26.666Z,0.90
2023-04-26T09:24:15.060Z,1.08
2023-04-26T09:32:23.256Z,0.70
2023-04-26T09:49:04.254Z,0.77
2023-04-26T10:20:57.667Z,0.88
2023-04-26T10:23:34.196Z,0.90
2023-04-26T10:26:01.745Z,0.80
2023-04-26T10:32:24.416Z,0.80
2023-04-26T10:35:25.290Z,0.85
2023-04-26T10:38:01.041Z,1.10
2023-04-26T10:40:36.144Z,1.00
2023-04-26T10:43:11.524Z,0.90
2023-04-26T10:45:45.751Z,0.77
2023-04-26T10:48:28.079Z,1.00
2023-04-26T11:15:56.394Z,1.00
2023-04-26T11:18:25.751Z,0.90
2023-04-26T11:31:42.981Z,0.68
2023-04-26T11:52:27.829Z,0.77
2023-04-26T11:55:10.578Z,0.80
2023-04-26T11:57:47.309Z,0.80
2023-04-26T12:01:04.386Z,0.90
2023-04-26T12:03:41.722Z,0.70
2023-04-26T12:08:58.900Z,0.80
2023-04-26T12:11:34.177Z,1.02
2023-04-26T12:14:02.027Z,0.88
2023-04-26T12:18:59.942Z,0.90
2023-04-26T12:21:29.867Z,0.98
2023-04-26T12:23:59.083Z,1.02
2023-04-26T12:26:50.863Z,0.70
2023-04-26T12:30:20.727Z,0.98
2023-04-26T12:40:35.595Z,0.90
2023-04-26T12:49:21.161Z,0.77
2023-04-26T12:51:50.808Z,1.13
2023-04-26T12:54:23.930Z,1.02
2023-04-26T12:56:50.933Z,0.90
2023-04-26T12:59:17.456Z,0.70
2023-04-26T13:01:43.862Z,1.00
2023-04-26T13:06:53.596Z,1.25
2023-04-26T13:09:48.505Z,0.90
2023-04-26T13:12:23.329Z,0.90
2023-04-26T13:24:01.015Z,1.10
2023-04-26T13:26:32.054Z,1.20
2023-04-26T13:28:58.994Z,0.93
2023-04-26T13:31:33.595Z,1.00
2023-04-26T13:41:48.832Z,0.80
2023-04-26T13:44:15.843Z,1.50
2023-04-26T13:46:43.234Z,1.10
2023-04-26T13:49:12.774Z,1.00
2023-04-26T13:51:39.329Z,1.27
2023-04-26T13:54:06.075Z,1.30
2023-04-26T13:57:02.874Z,1.15
2023-04-26T13:59:30.287Z,1.13
2023-04-26T14:02:00.868Z,1.27
2023-04-26T14:30:27.987Z,1.13
2023-04-26T14:48:11.083Z,1.20
2023-04-26T14:50:38.291Z,1.13
2023-04-26T14:53:04.796Z,0.95
2023-04-26T14:55:31.188Z,1.40
2023-04-26T14:57:58.114Z,0.85
2023-04-26T15:00:30.337Z,1.35
2023-04-26T15:02:59.673Z,0.90
2023-04-26T15:05:41.248Z,0.93
2023-04-26T15:08:07.930Z,0.77
2023-04-26T15:10:39.211Z,1.08
2023-04-26T15:13:10.107Z,1.00
2023-04-26T15:15:40.223Z,1.20
2023-04-26T15:18:17.031Z,1.00
2023-04-26T15:20:47.425Z,0.88
2023-04-26T15:23:36.379Z,0.90
2023-04-26T15:29:10.990Z,1.02
2023-04-26T15:31:41.745Z,1.00
2023-04-26T15:34:38.779Z,0.95
2023-04-26T15:37:28.912Z,1.20
2023-04-26T15:43:12.261Z,1.33
2023-04-26T15:45:38.710Z,1.20
2023-04-26T15:48:18.435Z,1.35
2023-04-26T15:50:49.380Z,1.20
2023-04-26T15:53:31.951Z,1.20
2023-04-26T15:56:00.496Z,1.17
2023-04-26T15:58:28.127Z,1.17
2023-04-26T16:00:55.422Z,0.98
2023-04-26T16:03:23.257Z,1.58
2023-04-26T16:06:10.595Z,1.38
2023-04-26T16:08:46.359Z,1.13
2023-04-26T16:11:17.930Z,1.10
2023-04-26T16:21:12.933Z,1.00
2023-04-26T16:23:42.198Z,0.85
2023-04-26T16:26:09.375Z,1.10
2023-04-26T16:28:36.242Z,1.02
2023-04-26T16:31:02.862Z,1.02
2023-04-26T16:33:29.813Z,1.20
2023-04-26T16:35:58.580Z,1.27
2023-04-26T16:38:25.206Z,1.05
2023-04-26T16:40:58.749Z,1.10
2023-04-26T16:43:30.257Z,1.33
2023-04-26T16:46:04.501Z,1.00
2023-04-26T16:48:32.724Z,1.20
2023-04-26T16:51:00.382Z,1.10
2023-04-26T16:53:27.120Z,0.98
2023-04-26T16:55:53.713Z,1.40
2023-04-26T16:58:21.471Z,1.13
2023-04-26T17:00:48.961Z,1.00
2023-04-26T17:03:39.263Z,1.13
2023-04-26T17:06:26.576Z,1.00
2023-04-26T17:09:01.024Z,1.40
2023-04-26T17:11:32.198Z,1.20
2023-04-26T17:14:04.135Z,1.10
2023-04-26T17:16:45.466Z,1.17
2023-04-26T17:19:14.567Z,1.40
2023-04-26T17:21:42.914Z,1.02
2023-04-26T17:24:10.915Z,1.13
2023-04-26T17:26:42.115Z,1.10
2023-04-26T17:29:13.003Z,1.13
2023-04-26T17:31:44.996Z,1.40
2023-04-26T17:34:21.534Z,1.05
2023-04-26T17:36:53.252Z,1.55
2023-04-26T17:39:19.826Z,1.23
2023-04-26T17:41:57.988Z,1.75
2023-04-26T17:44:31.070Z,1.40
2023-04-26T17:47:06.156Z,2.00
2023-04-26T17:49:33.491Z,1.52
2023-04-26T17:52:04.497Z,1.10
2023-04-26T18:04:19.417Z,1.30
2023-04-26T18:06:46.184Z,1.00
2023-04-26T18:11:47.938Z,1.20
2023-04-26T18:14:20.479Z,1.02
2023-04-26T18:16:47.156Z,1.38
2023-04-26T18:19:27.917Z,1.10
2023-04-26T18:22:27.254Z,1.00
2023-04-26T18:24:59.679Z,1.13
2023-04-26T18:27:26.046Z,1.38
2023-04-26T18:29:52.609Z,1.30
2023-04-26T18:32:19.261Z,1.10
2023-04-26T18:34:46.549Z,1.27
2023-04-26T18:37:12.911Z,1.88
2023-04-26T18:39:48.755Z,1.38
2023-04-26T18:42:15.226Z,1.52
2023-04-26T18:44:41.566Z,1.70
2023-04-26T18:47:07.983Z,1.30
2023-04-26T18:49:34.384Z,1.35
2023-04-26T18:52:01.582Z,1.55
2023-04-26T18:54:27.995Z,1.30
2023-04-26T18:56:54.484Z,1.40
2023-04-26T18:59:20.905Z,1.10
2023-04-26T19:01:49.026Z,1.15
2023-04-26T19:04:15.856Z,1.20
2023-04-26T19:06:42.283Z,1.42
2023-04-26T19:09:11.795Z,1.40
2023-04-26T19:11:38.429Z,1.17
2023-04-26T19:14:04.828Z,1.50
2023-04-26T19:16:35.295Z,1.35
2023-04-26T19:19:01.912Z,1.20
2023-04-26T19:21:28.307Z,1.20
2023-04-26T19:23:56.540Z,1.90
2023-04-26T19:26:22.931Z,1.25
2023-04-26T19:28:49.495Z,1.20
2023-04-26T19:31:15.921Z,1.30
2023-04-26T19:33:42.383Z,1.38
2023-04-26T19:36:09.668Z,1.52
2023-04-26T19:38:36.031Z,1.30
2023-04-26T19:41:02.452Z,1.20
2023-04-26T19:43:29.101Z,1.30
2023-04-26T19:45:55.473Z,1.20
2023-04-26T19:48:21.840Z,1.30
2023-04-26T19:50:48.191Z,1.42
2023-04-26T19:53:14.898Z,2.15
2023-04-26T19:55:42.294Z,1.40
2023-04-26T19:58:10.488Z,1.30
2023-04-26T20:00:38.108Z,1.50
2023-04-26T20:03:05.389Z,1.60
2023-04-26T20:05:32.162Z,1.50
2023-04-26T20:07:58.568Z,1.30
2023-04-26T20:10:25.056Z,1.13
2023-04-26T20:12:51.781Z,1.38
2023-04-26T20:15:18.202Z,1.50
2023-04-26T20:17:44.706Z,1.67
2023-04-26T20:20:12.613Z,1.60
2023-04-26T20:22:40.253Z,1.40
2023-04-26T20:25:07.274Z,1.85
2023-04-26T20:27:33.996Z,1.65
2023-04-26T20:30:00.548Z,1.50
2023-04-26T20:32:27.035Z,1.65
2023-04-26T20:34:53.582Z,1.50
2023-04-26T20:37:19.982Z,1.52
2023-04-26T20:39:46.388Z,1.77
2023-04-26T20:42:12.946Z,1.60
2023-04-26T20:44:39.285Z,1.65
2023-04-26T20:47:05.932Z,1.75
2023-04-26T20:49:32.329Z,1.88
2023-04-26T20:51:58.704Z,2.00
2023-04-26T20:54:25.123Z,2.20
2023-04-26T20:56:51.585Z,2.13
2023-04-26T20:59:18.195Z,2.53
2023-04-26T21:01:44.558Z,2.80
2023-04-26T21:04:11.181Z,2.80
2023-04-26T21:06:37.863Z,2.90
2023-04-26T21:09:05.210Z,3.28
2023-04-26T21:11:31.661Z,2.75
2023-04-26T21:13:58.801Z,2.65
2023-04-26T21:16:25.358Z,2.72
2023-04-26T21:18:52.715Z,2.50
2023-04-26T21:21:19.106Z,2.55
2023-04-26T21:23:45.477Z,2.60
2023-04-26T21:26:11.807Z,2.30
2023-04-26T21:28:38.149Z,2.50
2023-04-26T21:31:06.373Z,2.38
2023-04-26T21:33:33.701Z,2.50
2023-04-26T21:36:00.555Z,2.65
2023-04-26T21:38:27.249Z,2.35
2023-04-26T21:40:53.628Z,3.00
2023-04-26T21:43:21.522Z,1.98
2023-04-26T21:45:50.260Z,2.30
2023-04-26T21:48:16.850Z,2.17
2023-04-26T21:50:43.370Z,1.77
2023-04-26T21:53:09.943Z,2.13
2023-04-26T21:55:36.363Z,2.10
2023-04-26T21:58:05.449Z,2.00
2023-04-26T22:00:31.945Z,1.80
2023-04-26T22:02:58.621Z,2.00
2023-04-26T22:05:29.230Z,2.00
2023-04-26T22:07:56.050Z,2.10
2023-04-26T22:10:22.510Z,2.30
2023-04-26T22:12:48.956Z,2.30
2023-04-26T22:15:15.616Z,2.00
2023-04-26T22:17:42.087Z,1.98
2023-04-26T22:20:12.515Z,2.20
2023-04-26T22:22:39.364Z,2.05
2023-04-26T22:25:06.280Z,1.90
2023-04-26T22:27:32.877Z,1.88
2023-04-26T22:30:06.226Z,2.20
2023-04-26T22:32:35.813Z,2.40
2023-04-26T22:35:02.222Z,2.40
2023-04-26T22:37:28.607Z,2.55
2023-04-26T22:39:56.332Z,4.25
2023-04-26T22:42:22.781Z,2.30
2023-04-26T22:44:49.404Z,2.35
2023-04-26T22:47:18.382Z,2.30
2023-04-26T22:49:44.772Z,2.45
2023-04-26T22:52:20.209Z,2.33
2023-04-26T22:54:54.569Z,2.30
2023-04-26T22:57:21.379Z,2.45
2023-04-26T22:59:48.092Z,2.15
2023-04-26T23:02:15.419Z,2.42
2023-04-26T23:04:42.134Z,2.63
2023-04-26T23:07:08.678Z,2.40
2023-04-26T23:09:35.294Z,2.75
2023-04-26T23:12:03.400Z,2.50
2023-04-26T23:14:30.393Z,2.55
2023-04-26T23:16:58.682Z,2.88
2023-04-26T23:19:26.239Z,2.58
2023-04-26T23:21:53.043Z,2.47
2023-04-26T23:24:19.480Z,2.40
2023-04-26T23:26:46.006Z,2.15
2023-04-26T23:29:13.215Z,2.83
2023-04-26T23:31:39.924Z,2.63
2023-04-26T23:34:06.279Z,2.75
2023-04-26T23:36:33.341Z,2.47
2023-04-26T23:38:59.853Z,2.55
2023-04-26T23:41:26.314Z,2.42
2023-04-26T23:43:52.781Z,2.50
2023-04-26T23:46:19.253Z,2.30
2023-04-26T23:48:45.723Z,2.50
2023-04-26T23:51:12.114Z,2.55
2023-04-26T23:53:41.211Z,2.40
2023-04-26T23:56:07.735Z,2.50
2023-04-26T23:58:34.166Z,2.38
